sensor_id;sensor_type;location;lat;lon;timestamp;P1;durP1;ratioP1;P2;durP2;ratioP2
80136;SDS011;69466;55.948;37.484;2023-04-25T00:02:21;13.68;;;5.60;;
80136;SDS011;69466;55.948;37.484;2023-04-25T00:04:47;11.98;;;5.82;;
80136;SDS011;69466;55.948;37.484;2023-04-25T00:07:14;10.65;;;5.95;;
80136;SDS011;69466;55.948;37.484;2023-04-25T00:09:41;10.68;;;6.00;;
80136;SDS011;69466;55.948;37.484;2023-04-25T00:12:07;14.95;;;6.63;;
80136;SDS011;69466;55.948;37.484;2023-04-25T00:14:34;15.63;;;6.85;;
80136;SDS011;69466;55.948;37.484;2023-04-25T00:17:01;14.05;;;6.43;;
80136;SDS011;69466;55.948;37.484;2023-04-25T00:19:28;15.05;;;6.43;;
80136;SDS011;69466;55.948;37.484;2023-04-25T00:21:54;12.18;;;6.75;;
80136;SDS011;69466;55.948;37.484;2023-04-25T00:24:21;12.60;;;7.50;;
80136;SDS011;69466;55.948;37.484;2023-04-25T00:26:46;15.95;;;6.88;;
80136;SDS011;69466;55.948;37.484;2023-04-25T00:29:13;18.30;;;7.35;;
80136;SDS011;69466;55.948;37.484;2023-04-25T00:31:39;16.10;;;6.97;;
80136;SDS011;69466;55.948;37.484;2023-04-25T00:34:05;18.13;;;6.65;;
80136;SDS011;69466;55.948;37.484;2023-04-25T00:36:32;15.73;;;7.15;;
80136;SDS011;69466;55.948;37.484;2023-04-25T00:38:58;11.88;;;6.18;;
80136;SDS011;69466;55.948;37.484;2023-04-25T00:41:25;13.48;;;6.55;;
80136;SDS011;69466;55.948;37.484;2023-04-25T00:43:51;12.60;;;6.55;;
80136;SDS011;69466;55.948;37.484;2023-04-25T00:46:20;20.08;;;6.60;;
80136;SDS011;69466;55.948;37.484;2023-04-25T00:48:45;13.90;;;6.43;;
80136;SDS011;69466;55.948;37.484;2023-04-25T00:51:13;13.43;;;6.88;;
80136;SDS011;69466;55.948;37.484;2023-04-25T00:53:44;14.88;;;7.20;;
80136;SDS011;69466;55.948;37.484;2023-04-25T00:56:10;13.00;;;5.95;;
80136;SDS011;69466;55.948;37.484;2023-04-25T00:58:37;18.98;;;6.80;;
80136;SDS011;69466;55.948;37.484;2023-04-25T01:01:03;11.20;;;5.53;;
80136;SDS011;69466;55.948;37.484;2023-04-25T01:03:31;15.32;;;6.97;;
80136;SDS011;69466;55.948;37.484;2023-04-25T01:06:01;14.30;;;6.60;;
80136;SDS011;69466;55.948;37.484;2023-04-25T01:08:28;19.58;;;7.22;;
80136;SDS011;69466;55.948;37.484;2023-04-25T01:10:54;12.40;;;6.18;;
80136;SDS011;69466;55.948;37.484;2023-04-25T01:13:19;13.88;;;6.60;;
80136;SDS011;69466;55.948;37.484;2023-04-25T01:15:45;13.77;;;6.15;;
80136;SDS011;69466;55.948;37.484;2023-04-25T01:18:12;13.27;;;6.53;;
80136;SDS011;69466;55.948;37.484;2023-04-25T01:20:38;13.35;;;6.40;;
80136;SDS011;69466;55.948;37.484;2023-04-25T01:23:07;14.43;;;6.32;;
80136;SDS011;69466;55.948;37.484;2023-04-25T01:25:33;15.60;;;7.20;;
80136;SDS011;69466;55.948;37.484;2023-04-25T01:27:59;13.68;;;6.03;;
80136;SDS011;69466;55.948;37.484;2023-04-25T01:30:26;12.80;;;5.97;;
80136;SDS011;69466;55.948;37.484;2023-04-25T01:32:56;15.10;;;5.90;;
80136;SDS011;69466;55.948;37.484;2023-04-25T01:35:22;10.50;;;5.93;;
80136;SDS011;69466;55.948;37.484;2023-04-25T01:37:52;17.60;;;6.82;;
80136;SDS011;69466;55.948;37.484;2023-04-25T01:40:18;13.18;;;6.18;;
80136;SDS011;69466;55.948;37.484;2023-04-25T01:42:48;12.07;;;6.30;;
80136;SDS011;69466;55.948;37.484;2023-04-25T01:45:15;11.63;;;6.10;;
80136;SDS011;69466;55.948;37.484;2023-04-25T01:47:41;16.98;;;6.10;;
80136;SDS011;69466;55.948;37.484;2023-04-25T01:50:09;14.98;;;6.50;;
80136;SDS011;69466;55.948;37.484;2023-04-25T01:52:37;17.10;;;5.78;;
80136;SDS011;69466;55.948;37.484;2023-04-25T01:55:05;12.60;;;5.32;;
80136;SDS011;69466;55.948;37.484;2023-04-25T01:57:34;11.20;;;5.82;;
80136;SDS011;69466;55.948;37.484;2023-04-25T02:00:02;12.93;;;6.95;;
80136;SDS011;69466;55.948;37.484;2023-04-25T02:02:39;10.98;;;6.07;;
80136;SDS011;69466;55.948;37.484;2023-04-25T02:05:12;11.95;;;6.35;;
80136;SDS011;69466;55.948;37.484;2023-04-25T02:07:39;13.10;;;6.47;;
80136;SDS011;69466;55.948;37.484;2023-04-25T02:10:06;20.17;;;6.82;;
80136;SDS011;69466;55.948;37.484;2023-04-25T02:12:39;9.27;;;5.93;;
80136;SDS011;69466;55.948;37.484;2023-04-25T02:15:30;18.23;;;9.20;;
80136;SDS011;69466;55.948;37.484;2023-04-25T02:18:28;16.58;;;6.97;;
80136;SDS011;69466;55.948;37.484;2023-04-25T02:20:54;14.20;;;6.30;;
80136;SDS011;69466;55.948;37.484;2023-04-25T02:23:20;12.55;;;7.47;;
80136;SDS011;69466;55.948;37.484;2023-04-25T02:25:46;20.05;;;7.55;;
80136;SDS011;69466;55.948;37.484;2023-04-25T02:28:12;18.40;;;7.50;;
80136;SDS011;69466;55.948;37.484;2023-04-25T02:30:38;15.02;;;7.28;;
80136;SDS011;69466;55.948;37.484;2023-04-25T02:33:04;15.00;;;8.57;;
80136;SDS011;69466;55.948;37.484;2023-04-25T02:35:30;14.88;;;7.32;;
80136;SDS011;69466;55.948;37.484;2023-04-25T02:37:57;21.40;;;9.38;;
80136;SDS011;69466;55.948;37.484;2023-04-25T02:40:23;17.30;;;8.65;;
80136;SDS011;69466;55.948;37.484;2023-04-25T02:42:49;14.30;;;7.47;;
80136;SDS011;69466;55.948;37.484;2023-04-25T02:45:15;15.10;;;7.40;;
80136;SDS011;69466;55.948;37.484;2023-04-25T02:47:41;19.63;;;7.88;;
80136;SDS011;69466;55.948;37.484;2023-04-25T02:50:07;18.02;;;7.25;;
80136;SDS011;69466;55.948;37.484;2023-04-25T02:52:33;15.68;;;7.03;;
80136;SDS011;69466;55.948;37.484;2023-04-25T02:55:08;13.55;;;7.43;;
80136;SDS011;69466;55.948;37.484;2023-04-25T02:57:35;13.77;;;7.78;;
80136;SDS011;69466;55.948;37.484;2023-04-25T03:00:01;12.75;;;6.70;;
80136;SDS011;69466;55.948;37.484;2023-04-25T03:02:29;9.77;;;5.00;;
80136;SDS011;69466;55.948;37.484;2023-04-25T03:04:54;12.82;;;4.30;;
80136;SDS011;69466;55.948;37.484;2023-04-25T03:07:21;8.98;;;4.32;;
80136;SDS011;69466;55.948;37.484;2023-04-25T03:09:48;11.90;;;6.07;;
80136;SDS011;69466;55.948;37.484;2023-04-25T03:12:13;10.15;;;5.53;;
80136;SDS011;69466;55.948;37.484;2023-04-25T03:14:39;9.40;;;5.43;;
80136;SDS011;69466;55.948;37.484;2023-04-25T03:17:05;11.68;;;4.93;;
80136;SDS011;69466;55.948;37.484;2023-04-25T03:19:34;16.27;;;5.93;;
80136;SDS011;69466;55.948;37.484;2023-04-25T03:21:59;10.52;;;5.15;;
80136;SDS011;69466;55.948;37.484;2023-04-25T03:24:26;10.73;;;4.63;;
80136;SDS011;69466;55.948;37.484;2023-04-25T03:26:52;10.88;;;5.40;;
80136;SDS011;69466;55.948;37.484;2023-04-25T03:29:18;10.75;;;5.10;;
80136;SDS011;69466;55.948;37.484;2023-04-25T03:31:45;8.13;;;4.70;;
80136;SDS011;69466;55.948;37.484;2023-04-25T03:34:11;16.38;;;5.43;;
80136;SDS011;69466;55.948;37.484;2023-04-25T03:36:40;7.90;;;4.78;;
80136;SDS011;69466;55.948;37.484;2023-04-25T03:39:06;13.98;;;4.57;;
80136;SDS011;69466;55.948;37.484;2023-04-25T03:41:32;12.30;;;5.05;;
80136;SDS011;69466;55.948;37.484;2023-04-25T03:44:05;11.53;;;4.20;;
80136;SDS011;69466;55.948;37.484;2023-04-25T03:46:32;11.70;;;4.82;;
80136;SDS011;69466;55.948;37.484;2023-04-25T03:48:58;10.57;;;5.15;;
80136;SDS011;69466;55.948;37.484;2023-04-25T03:51:34;10.63;;;5.82;;
80136;SDS011;69466;55.948;37.484;2023-04-25T03:54:01;12.82;;;5.55;;
80136;SDS011;69466;55.948;37.484;2023-04-25T03:56:30;12.20;;;5.38;;
80136;SDS011;69466;55.948;37.484;2023-04-25T03:59:03;11.88;;;5.03;;
80136;SDS011;69466;55.948;37.484;2023-04-25T04:01:30;10.52;;;5.68;;
80136;SDS011;69466;55.948;37.484;2023-04-25T04:03:56;14.80;;;5.22;;
80136;SDS011;69466;55.948;37.484;2023-04-25T04:06:23;16.42;;;5.55;;
80136;SDS011;69466;55.948;37.484;2023-04-25T04:08:55;13.18;;;5.68;;
80136;SDS011;69466;55.948;37.484;2023-04-25T04:11:23;12.80;;;5.53;;
80136;SDS011;69466;55.948;37.484;2023-04-25T04:13:49;12.02;;;5.32;;
80136;SDS011;69466;55.948;37.484;2023-04-25T04:16:15;12.07;;;5.10;;
80136;SDS011;69466;55.948;37.484;2023-04-25T04:18:42;14.05;;;5.35;;
80136;SDS011;69466;55.948;37.484;2023-04-25T04:21:09;9.30;;;5.10;;
80136;SDS011;69466;55.948;37.484;2023-04-25T04:23:38;11.43;;;4.47;;
80136;SDS011;69466;55.948;37.484;2023-04-25T04:26:05;10.73;;;4.53;;
80136;SDS011;69466;55.948;37.484;2023-04-25T04:29:10;9.77;;;4.53;;
80136;SDS011;69466;55.948;37.484;2023-04-25T04:31:56;11.05;;;4.60;;
80136;SDS011;69466;55.948;37.484;2023-04-25T04:34:23;11.93;;;4.88;;
80136;SDS011;69466;55.948;37.484;2023-04-25T04:36:52;11.50;;;4.43;;
80136;SDS011;69466;55.948;37.484;2023-04-25T04:39:22;10.75;;;4.63;;
80136;SDS011;69466;55.948;37.484;2023-04-25T04:41:59;11.63;;;4.85;;
80136;SDS011;69466;55.948;37.484;2023-04-25T04:44:56;11.13;;;3.88;;
80136;SDS011;69466;55.948;37.484;2023-04-25T04:47:42;9.75;;;4.20;;
80136;SDS011;69466;55.948;37.484;2023-04-25T04:50:32;13.45;;;4.60;;
80136;SDS011;69466;55.948;37.484;2023-04-25T04:53:05;11.50;;;4.73;;
80136;SDS011;69466;55.948;37.484;2023-04-25T04:55:49;10.65;;;4.63;;
80136;SDS011;69466;55.948;37.484;2023-04-25T04:58:28;12.85;;;5.22;;
80136;SDS011;69466;55.948;37.484;2023-04-25T05:01:18;10.88;;;5.25;;
80136;SDS011;69466;55.948;37.484;2023-04-25T05:04:14;16.58;;;7.35;;
80136;SDS011;69466;55.948;37.484;2023-04-25T05:06:55;19.05;;;7.38;;
80136;SDS011;69466;55.948;37.484;2023-04-25T05:09:39;19.55;;;8.88;;
80136;SDS011;69466;55.948;37.484;2023-04-25T05:12:13;15.20;;;8.07;;
80136;SDS011;69466;55.948;37.484;2023-04-25T05:14:48;19.25;;;9.23;;
80136;SDS011;69466;55.948;37.484;2023-04-25T05:17:35;19.15;;;9.23;;
80136;SDS011;69466;55.948;37.484;2023-04-25T05:20:21;17.02;;;8.63;;
80136;SDS011;69466;55.948;37.484;2023-04-25T05:23:02;18.33;;;8.48;;
80136;SDS011;69466;55.948;37.484;2023-04-25T05:26:04;23.15;;;9.55;;
80136;SDS011;69466;55.948;37.484;2023-04-25T05:28:48;23.38;;;9.32;;
80136;SDS011;69466;55.948;37.484;2023-04-25T05:31:36;16.70;;;8.63;;
80136;SDS011;69466;55.948;37.484;2023-04-25T05:34:23;23.23;;;9.48;;
80136;SDS011;69466;55.948;37.484;2023-04-25T05:36:54;24.30;;;10.68;;
80136;SDS011;69466;55.948;37.484;2023-04-25T05:39:20;17.17;;;9.50;;
80136;SDS011;69466;55.948;37.484;2023-04-25T05:42:05;23.55;;;8.75;;
80136;SDS011;69466;55.948;37.484;2023-04-25T05:44:49;15.70;;;8.18;;
80136;SDS011;69466;55.948;37.484;2023-04-25T05:47:23;15.10;;;8.15;;
80136;SDS011;69466;55.948;37.484;2023-04-25T05:50:05;23.27;;;9.65;;
80136;SDS011;69466;55.948;37.484;2023-04-25T05:53:10;15.70;;;9.32;;
80136;SDS011;69466;55.948;37.484;2023-04-25T05:55:41;16.55;;;8.68;;
80136;SDS011;69466;55.948;37.484;2023-04-25T05:58:26;16.52;;;9.07;;
80136;SDS011;69466;55.948;37.484;2023-04-25T06:00:53;16.40;;;8.50;;
80136;SDS011;69466;55.948;37.484;2023-04-25T06:03:19;13.63;;;8.07;;
80136;SDS011;69466;55.948;37.484;2023-04-25T06:05:45;13.85;;;8.10;;
80136;SDS011;69466;55.948;37.484;2023-04-25T06:08:11;15.38;;;8.85;;
80136;SDS011;69466;55.948;37.484;2023-04-25T06:10:37;14.52;;;8.90;;
80136;SDS011;69466;55.948;37.484;2023-04-25T06:13:03;13.38;;;8.07;;
80136;SDS011;69466;55.948;37.484;2023-04-25T06:15:30;12.43;;;7.45;;
80136;SDS011;69466;55.948;37.484;2023-04-25T06:17:59;13.48;;;7.55;;
80136;SDS011;69466;55.948;37.484;2023-04-25T06:20:24;15.93;;;7.57;;
80136;SDS011;69466;55.948;37.484;2023-04-25T06:22:51;12.73;;;8.18;;
80136;SDS011;69466;55.948;37.484;2023-04-25T06:25:18;12.38;;;7.15;;
80136;SDS011;69466;55.948;37.484;2023-04-25T06:27:45;13.95;;;7.15;;
80136;SDS011;69466;55.948;37.484;2023-04-25T06:30:12;14.05;;;7.18;;
80136;SDS011;69466;55.948;37.484;2023-04-25T06:32:38;15.23;;;6.18;;
80136;SDS011;69466;55.948;37.484;2023-04-25T06:35:06;18.08;;;6.22;;
80136;SDS011;69466;55.948;37.484;2023-04-25T06:37:32;13.15;;;6.50;;
80136;SDS011;69466;55.948;37.484;2023-04-25T06:39:58;10.93;;;6.25;;
80136;SDS011;69466;55.948;37.484;2023-04-25T06:42:24;14.10;;;6.18;;
80136;SDS011;69466;55.948;37.484;2023-04-25T06:44:57;14.15;;;5.72;;
80136;SDS011;69466;55.948;37.484;2023-04-25T06:47:23;16.48;;;6.00;;
80136;SDS011;69466;55.948;37.484;2023-04-25T06:49:49;18.10;;;6.65;;
80136;SDS011;69466;55.948;37.484;2023-04-25T06:52:15;12.45;;;5.72;;
80136;SDS011;69466;55.948;37.484;2023-04-25T06:54:43;11.63;;;5.18;;
80136;SDS011;69466;55.948;37.484;2023-04-25T06:57:26;10.73;;;5.30;;
80136;SDS011;69466;55.948;37.484;2023-04-25T06:59:53;12.57;;;5.85;;
80136;SDS011;69466;55.948;37.484;2023-04-25T07:02:19;13.05;;;5.60;;
80136;SDS011;69466;55.948;37.484;2023-04-25T07:04:48;9.27;;;4.43;;
80136;SDS011;69466;55.948;37.484;2023-04-25T07:07:14;11.07;;;5.85;;
80136;SDS011;69466;55.948;37.484;2023-04-25T07:09:52;11.43;;;5.35;;
80136;SDS011;69466;55.948;37.484;2023-04-25T07:12:18;13.93;;;4.80;;
80136;SDS011;69466;55.948;37.484;2023-04-25T07:14:44;10.38;;;5.35;;
80136;SDS011;69466;55.948;37.484;2023-04-25T07:17:10;8.57;;;4.97;;
80136;SDS011;69466;55.948;37.484;2023-04-25T07:19:36;10.43;;;5.03;;
80136;SDS011;69466;55.948;37.484;2023-04-25T07:22:05;10.60;;;4.38;;
80136;SDS011;69466;55.948;37.484;2023-04-25T07:24:33;9.95;;;4.75;;
80136;SDS011;69466;55.948;37.484;2023-04-25T07:26:59;13.15;;;4.25;;
80136;SDS011;69466;55.948;37.484;2023-04-25T07:29:34;10.40;;;4.72;;
80136;SDS011;69466;55.948;37.484;2023-04-25T07:32:02;9.23;;;4.28;;
80136;SDS011;69466;55.948;37.484;2023-04-25T07:34:28;10.60;;;4.22;;
80136;SDS011;69466;55.948;37.484;2023-04-25T07:36:56;10.38;;;5.35;;
80136;SDS011;69466;55.948;37.484;2023-04-25T07:39:24;11.45;;;5.28;;
80136;SDS011;69466;55.948;37.484;2023-04-25T07:41:51;9.10;;;4.45;;
80136;SDS011;69466;55.948;37.484;2023-04-25T07:44:22;8.68;;;4.55;;
80136;SDS011;69466;55.948;37.484;2023-04-25T07:46:48;9.90;;;4.53;;
80136;SDS011;69466;55.948;37.484;2023-04-25T07:49:15;6.60;;;3.85;;
80136;SDS011;69466;55.948;37.484;2023-04-25T07:51:43;8.55;;;4.93;;
80136;SDS011;69466;55.948;37.484;2023-04-25T07:54:13;9.82;;;4.95;;
80136;SDS011;69466;55.948;37.484;2023-04-25T07:56:44;14.20;;;5.20;;
80136;SDS011;69466;55.948;37.484;2023-04-25T07:59:10;7.88;;;4.30;;
80136;SDS011;69466;55.948;37.484;2023-04-25T08:01:36;9.52;;;4.10;;
80136;SDS011;69466;55.948;37.484;2023-04-25T08:04:05;9.65;;;3.70;;
80136;SDS011;69466;55.948;37.484;2023-04-25T08:06:53;8.23;;;3.70;;
80136;SDS011;69466;55.948;37.484;2023-04-25T08:09:23;8.55;;;5.07;;
80136;SDS011;69466;55.948;37.484;2023-04-25T08:11:51;12.60;;;5.03;;
80136;SDS011;69466;55.948;37.484;2023-04-25T08:14:22;9.98;;;4.80;;
80136;SDS011;69466;55.948;37.484;2023-04-25T08:16:48;13.35;;;4.43;;
80136;SDS011;69466;55.948;37.484;2023-04-25T08:19:14;11.50;;;4.60;;
80136;SDS011;69466;55.948;37.484;2023-04-25T08:21:40;11.57;;;4.97;;
80136;SDS011;69466;55.948;37.484;2023-04-25T08:24:10;8.48;;;4.72;;
80136;SDS011;69466;55.948;37.484;2023-04-25T08:26:39;12.23;;;5.82;;
80136;SDS011;69466;55.948;37.484;2023-04-25T08:29:06;18.35;;;6.00;;
80136;SDS011;69466;55.948;37.484;2023-04-25T08:31:32;9.00;;;4.85;;
80136;SDS011;69466;55.948;37.484;2023-04-25T08:34:01;7.20;;;4.47;;
80136;SDS011;69466;55.948;37.484;2023-04-25T08:36:36;11.88;;;5.05;;
80136;SDS011;69466;55.948;37.484;2023-04-25T08:39:02;9.20;;;5.07;;
80136;SDS011;69466;55.948;37.484;2023-04-25T08:41:28;10.90;;;5.45;;
80136;SDS011;69466;55.948;37.484;2023-04-25T08:43:55;8.50;;;4.93;;
80136;SDS011;69466;55.948;37.484;2023-04-25T08:46:23;7.28;;;4.28;;
80136;SDS011;69466;55.948;37.484;2023-04-25T08:49:17;12.45;;;5.60;;
80136;SDS011;69466;55.948;37.484;2023-04-25T08:51:45;14.00;;;5.30;;
80136;SDS011;69466;55.948;37.484;2023-04-25T08:54:13;16.48;;;4.65;;
80136;SDS011;69466;55.948;37.484;2023-04-25T08:56:41;8.18;;;4.60;;
80136;SDS011;69466;55.948;37.484;2023-04-25T08:59:10;7.90;;;4.43;;
80136;SDS011;69466;55.948;37.484;2023-04-25T09:01:37;9.70;;;5.10;;
80136;SDS011;69466;55.948;37.484;2023-04-25T09:04:05;10.20;;;4.68;;
80136;SDS011;69466;55.948;37.484;2023-04-25T09:06:33;18.38;;;6.10;;
80136;SDS011;69466;55.948;37.484;2023-04-25T09:09:05;11.63;;;4.72;;
80136;SDS011;69466;55.948;37.484;2023-04-25T09:11:33;13.38;;;4.60;;
80136;SDS011;69466;55.948;37.484;2023-04-25T09:14:14;8.00;;;5.18;;
80136;SDS011;69466;55.948;37.484;2023-04-25T09:17:04;10.60;;;5.38;;
80136;SDS011;69466;55.948;37.484;2023-04-25T09:19:51;14.82;;;5.18;;
80136;SDS011;69466;55.948;37.484;2023-04-25T09:22:27;9.38;;;4.55;;
80136;SDS011;69466;55.948;37.484;2023-04-25T09:24:53;9.25;;;4.80;;
80136;SDS011;69466;55.948;37.484;2023-04-25T09:27:22;9.85;;;4.60;;
80136;SDS011;69466;55.948;37.484;2023-04-25T09:30:13;10.27;;;5.10;;
80136;SDS011;69466;55.948;37.484;2023-04-25T09:33:04;8.95;;;4.72;;
80136;SDS011;69466;55.948;37.484;2023-04-25T09:35:36;9.35;;;4.00;;
80136;SDS011;69466;55.948;37.484;2023-04-25T09:38:13;10.98;;;5.07;;
80136;SDS011;69466;55.948;37.484;2023-04-25T09:40:52;11.32;;;4.53;;
80136;SDS011;69466;55.948;37.484;2023-04-25T09:43:38;7.93;;;4.40;;
80136;SDS011;69466;55.948;37.484;2023-04-25T09:46:08;8.75;;;3.90;;
80136;SDS011;69466;55.948;37.484;2023-04-25T09:48:39;11.88;;;5.00;;
80136;SDS011;69466;55.948;37.484;2023-04-25T09:51:06;7.32;;;3.75;;
80136;SDS011;69466;55.948;37.484;2023-04-25T09:53:38;11.02;;;4.13;;
80136;SDS011;69466;55.948;37.484;2023-04-25T09:56:14;13.68;;;4.68;;
80136;SDS011;69466;55.948;37.484;2023-04-25T09:58:41;9.18;;;4.05;;
80136;SDS011;69466;55.948;37.484;2023-04-25T10:01:09;7.03;;;3.75;;
80136;SDS011;69466;55.948;37.484;2023-04-25T10:03:46;8.23;;;3.40;;
80136;SDS011;69466;55.948;37.484;2023-04-25T10:06:34;12.25;;;3.80;;
80136;SDS011;69466;55.948;37.484;2023-04-25T10:09:02;8.40;;;3.63;;
80136;SDS011;69466;55.948;37.484;2023-04-25T10:11:29;7.63;;;3.92;;
80136;SDS011;69466;55.948;37.484;2023-04-25T10:13:56;5.88;;;3.33;;
80136;SDS011;69466;55.948;37.484;2023-04-25T10:16:22;8.07;;;3.25;;
80136;SDS011;69466;55.948;37.484;2023-04-25T10:18:50;7.05;;;3.60;;
80136;SDS011;69466;55.948;37.484;2023-04-25T10:21:16;7.03;;;3.53;;
80136;SDS011;69466;55.948;37.484;2023-04-25T10:23:43;8.07;;;3.88;;
80136;SDS011;69466;55.948;37.484;2023-04-25T10:26:11;8.75;;;3.72;;
80136;SDS011;69466;55.948;37.484;2023-04-25T10:28:55;5.80;;;3.38;;
80136;SDS011;69466;55.948;37.484;2023-04-25T10:31:26;7.53;;;3.90;;
80136;SDS011;69466;55.948;37.484;2023-04-25T10:33:52;8.43;;;3.45;;
80136;SDS011;69466;55.948;37.484;2023-04-25T10:36:21;11.32;;;3.58;;
80136;SDS011;69466;55.948;37.484;2023-04-25T10:38:49;8.23;;;3.42;;
80136;SDS011;69466;55.948;37.484;2023-04-25T10:41:17;9.13;;;3.58;;
80136;SDS011;69466;55.948;37.484;2023-04-25T10:43:46;7.38;;;3.40;;
80136;SDS011;69466;55.948;37.484;2023-04-25T10:46:16;5.88;;;2.65;;
80136;SDS011;69466;55.948;37.484;2023-04-25T10:48:48;5.57;;;2.30;;
80136;SDS011;69466;55.948;37.484;2023-04-25T10:51:19;7.93;;;3.08;;
80136;SDS011;69466;55.948;37.484;2023-04-25T10:56:30;5.18;;;3.28;;
80136;SDS011;69466;55.948;37.484;2023-04-25T11:01:43;4.97;;;3.05;;
80136;SDS011;69466;55.948;37.484;2023-04-25T11:09:36;7.63;;;3.33;;
80136;SDS011;69466;55.948;37.484;2023-04-25T11:12:06;5.10;;;2.80;;
80136;SDS011;69466;55.948;37.484;2023-04-25T11:14:35;5.82;;;3.53;;
80136;SDS011;69466;55.948;37.484;2023-04-25T11:17:13;8.05;;;5.47;;
80136;SDS011;69466;55.948;37.484;2023-04-25T11:19:39;5.20;;;2.70;;
80136;SDS011;69466;55.948;37.484;2023-04-25T11:22:05;7.22;;;3.17;;
80136;SDS011;69466;55.948;37.484;2023-04-25T11:24:32;8.07;;;2.75;;
80136;SDS011;69466;55.948;37.484;2023-04-25T11:27:00;5.32;;;2.67;;
80136;SDS011;69466;55.948;37.484;2023-04-25T11:29:30;6.60;;;2.67;;
80136;SDS011;69466;55.948;37.484;2023-04-25T11:31:57;6.93;;;3.17;;
80136;SDS011;69466;55.948;37.484;2023-04-25T11:34:23;7.25;;;2.92;;
80136;SDS011;69466;55.948;37.484;2023-04-25T11:36:51;8.25;;;3.08;;
80136;SDS011;69466;55.948;37.484;2023-04-25T11:39:18;6.72;;;2.17;;
80136;SDS011;69466;55.948;37.484;2023-04-25T11:41:45;4.25;;;2.05;;
80136;SDS011;69466;55.948;37.484;2023-04-25T11:44:15;6.25;;;2.10;;
80136;SDS011;69466;55.948;37.484;2023-04-25T11:46:42;6.47;;;2.50;;
80136;SDS011;69466;55.948;37.484;2023-04-25T11:49:09;6.18;;;2.90;;
80136;SDS011;69466;55.948;37.484;2023-04-25T11:51:38;12.07;;;3.30;;
80136;SDS011;69466;55.948;37.484;2023-04-25T11:54:05;7.03;;;3.53;;
80136;SDS011;69466;55.948;37.484;2023-04-25T11:56:34;8.00;;;3.20;;
80136;SDS011;69466;55.948;37.484;2023-04-25T11:59:01;8.30;;;3.35;;
80136;SDS011;69466;55.948;37.484;2023-04-25T12:01:37;8.85;;;3.60;;
80136;SDS011;69466;55.948;37.484;2023-04-25T12:07:17;8.43;;;3.22;;
80136;SDS011;69466;55.948;37.484;2023-04-25T12:09:51;6.80;;;2.80;;
80136;SDS011;69466;55.948;37.484;2023-04-25T12:12:18;6.75;;;2.13;;
80136;SDS011;69466;55.948;37.484;2023-04-25T12:14:45;6.22;;;2.17;;
80136;SDS011;69466;55.948;37.484;2023-04-25T12:17:13;6.72;;;2.90;;
80136;SDS011;69466;55.948;37.484;2023-04-25T12:19:39;6.20;;;2.70;;
80136;SDS011;69466;55.948;37.484;2023-04-25T12:22:18;8.57;;;3.00;;
80136;SDS011;69466;55.948;37.484;2023-04-25T12:24:48;6.82;;;2.50;;
80136;SDS011;69466;55.948;37.484;2023-04-25T12:27:15;5.20;;;2.90;;
80136;SDS011;69466;55.948;37.484;2023-04-25T12:29:53;4.70;;;2.60;;
80136;SDS011;69466;55.948;37.484;2023-04-25T12:32:21;7.78;;;2.97;;
80136;SDS011;69466;55.948;37.484;2023-04-25T12:34:47;7.03;;;3.13;;
80136;SDS011;69466;55.948;37.484;2023-04-25T12:37:13;6.70;;;2.65;;
80136;SDS011;69466;55.948;37.484;2023-04-25T12:39:39;9.65;;;2.50;;
80136;SDS011;69466;55.948;37.484;2023-04-25T12:42:05;7.65;;;2.92;;
80136;SDS011;69466;55.948;37.484;2023-04-25T12:44:33;5.47;;;3.00;;
80136;SDS011;69466;55.948;37.484;2023-04-25T12:47:00;8.52;;;3.45;;
80136;SDS011;69466;55.948;37.484;2023-04-25T12:49:26;6.13;;;2.42;;
80136;SDS011;69466;55.948;37.484;2023-04-25T12:51:51;6.00;;;2.65;;
80136;SDS011;69466;55.948;37.484;2023-04-25T12:54:17;6.03;;;2.53;;
80136;SDS011;69466;55.948;37.484;2023-04-25T12:56:43;5.00;;;2.55;;
80136;SDS011;69466;55.948;37.484;2023-04-25T12:59:09;8.07;;;2.40;;
80136;SDS011;69466;55.948;37.484;2023-04-25T13:01:35;5.80;;;2.83;;
80136;SDS011;69466;55.948;37.484;2023-04-25T13:04:01;9.27;;;2.58;;
80136;SDS011;69466;55.948;37.484;2023-04-25T13:06:26;7.05;;;2.90;;
80136;SDS011;69466;55.948;37.484;2023-04-25T13:08:52;7.10;;;2.72;;
80136;SDS011;69466;55.948;37.484;2023-04-25T13:11:19;6.72;;;2.40;;
80136;SDS011;69466;55.948;37.484;2023-04-25T13:13:45;6.22;;;2.47;;
80136;SDS011;69466;55.948;37.484;2023-04-25T13:16:11;6.18;;;2.80;;
80136;SDS011;69466;55.948;37.484;2023-04-25T13:18:39;5.13;;;2.20;;
80136;SDS011;69466;55.948;37.484;2023-04-25T13:21:06;6.18;;;2.70;;
80136;SDS011;69466;55.948;37.484;2023-04-25T13:23:31;8.00;;;2.88;;
80136;SDS011;69466;55.948;37.484;2023-04-25T13:25:57;6.18;;;2.78;;
80136;SDS011;69466;55.948;37.484;2023-04-25T13:28:24;6.97;;;2.97;;
80136;SDS011;69466;55.948;37.484;2023-04-25T13:30:50;6.35;;;2.80;;
80136;SDS011;69466;55.948;37.484;2023-04-25T13:33:17;8.95;;;3.47;;
80136;SDS011;69466;55.948;37.484;2023-04-25T13:35:43;9.27;;;3.15;;
80136;SDS011;69466;55.948;37.484;2023-04-25T13:38:12;7.15;;;2.85;;
80136;SDS011;69466;55.948;37.484;2023-04-25T13:40:38;6.35;;;3.25;;
80136;SDS011;69466;55.948;37.484;2023-04-25T13:43:04;8.65;;;3.08;;
80136;SDS011;69466;55.948;37.484;2023-04-25T13:45:31;6.38;;;2.78;;
80136;SDS011;69466;55.948;37.484;2023-04-25T13:47:57;7.68;;;3.60;;
80136;SDS011;69466;55.948;37.484;2023-04-25T13:50:23;6.28;;;3.50;;
80136;SDS011;69466;55.948;37.484;2023-04-25T13:52:49;6.82;;;3.17;;
80136;SDS011;69466;55.948;37.484;2023-04-25T13:55:15;6.88;;;3.22;;
80136;SDS011;69466;55.948;37.484;2023-04-25T13:57:41;6.72;;;2.63;;
80136;SDS011;69466;55.948;37.484;2023-04-25T14:00:07;9.38;;;3.95;;
80136;SDS011;69466;55.948;37.484;2023-04-25T14:02:34;13.13;;;3.58;;
80136;SDS011;69466;55.948;37.484;2023-04-25T14:05:01;11.32;;;3.47;;
80136;SDS011;69466;55.948;37.484;2023-04-25T14:07:28;10.13;;;3.85;;
80136;SDS011;69466;55.948;37.484;2023-04-25T14:09:54;7.32;;;3.38;;
80136;SDS011;69466;55.948;37.484;2023-04-25T14:12:21;7.28;;;3.35;;
80136;SDS011;69466;55.948;37.484;2023-04-25T14:14:47;8.38;;;3.50;;
80136;SDS011;69466;55.948;37.484;2023-04-25T14:17:13;10.38;;;3.28;;
80136;SDS011;69466;55.948;37.484;2023-04-25T14:19:39;11.07;;;3.53;;
80136;SDS011;69466;55.948;37.484;2023-04-25T14:22:08;7.32;;;3.80;;
80136;SDS011;69466;55.948;37.484;2023-04-25T14:24:34;7.40;;;3.08;;
80136;SDS011;69466;55.948;37.484;2023-04-25T14:27:00;6.80;;;3.15;;
80136;SDS011;69466;55.948;37.484;2023-04-25T14:29:26;6.47;;;3.20;;
80136;SDS011;69466;55.948;37.484;2023-04-25T14:31:52;8.02;;;3.95;;
80136;SDS011;69466;55.948;37.484;2023-04-25T14:34:18;6.45;;;2.83;;
80136;SDS011;69466;55.948;37.484;2023-04-25T14:36:45;8.93;;;3.10;;
80136;SDS011;69466;55.948;37.484;2023-04-25T14:39:12;7.85;;;2.80;;
80136;SDS011;69466;55.948;37.484;2023-04-25T14:41:39;6.05;;;3.10;;
80136;SDS011;69466;55.948;37.484;2023-04-25T14:44:05;7.22;;;3.20;;
80136;SDS011;69466;55.948;37.484;2023-04-25T14:46:31;7.90;;;3.55;;
80136;SDS011;69466;55.948;37.484;2023-04-25T14:48:56;5.55;;;3.33;;
80136;SDS011;69466;55.948;37.484;2023-04-25T14:51:22;6.63;;;3.70;;
80136;SDS011;69466;55.948;37.484;2023-04-25T14:53:48;10.02;;;3.92;;
80136;SDS011;69466;55.948;37.484;2023-04-25T14:56:14;7.95;;;3.47;;